createdAt,value
2018-08-04T00:01:49.851Z,25.20
2018-08-04T00:04:17.680Z,25.21
2018-08-04T00:06:45.505Z,25.21
2018-08-04T00:09:13.403Z,25.13
2018-08-04T00:11:41.768Z,25.05
2018-08-04T00:14:09.816Z,25.07
2018-08-04T00:16:37.764Z,24.97
2018-08-04T00:19:06.282Z,25.04
2018-08-04T00:21:34.256Z,24.91
2018-08-04T00:24:02.034Z,24.90
2018-08-04T00:26:31.257Z,24.88
2018-08-04T00:29:00.268Z,24.88
2018-08-04T00:31:29.575Z,24.85
2018-08-04T00:33:57.464Z,24.83
2018-08-04T00:36:25.646Z,24.76
2018-08-04T00:38:53.987Z,24.65
2018-08-04T00:41:21.886Z,24.61
2018-08-04T00:43:50.211Z,24.53
2018-08-04T00:46:18.220Z,24.52
2018-08-04T00:48:46.321Z,24.55
2018-08-04T00:51:14.229Z,24.45
2018-08-04T00:53:42.241Z,24.34
2018-08-04T00:56:10.455Z,24.37
2018-08-04T00:58:38.574Z,24.31
2018-08-04T01:01:06.963Z,24.22
2018-08-04T01:03:35.108Z,24.16
2018-08-04T01:06:02.988Z,24.22
2018-08-04T01:08:30.787Z,24.20
2018-08-04T01:10:58.700Z,24.11
2018-08-04T01:13:26.464Z,24.16
2018-08-04T01:15:54.267Z,24.05
2018-08-04T01:18:22.120Z,24.02
2018-08-04T01:20:49.895Z,23.96
2018-08-04T01:23:17.854Z,23.88
2018-08-04T01:25:45.821Z,23.86
2018-08-04T01:28:13.622Z,23.79
2018-08-04T01:30:41.455Z,23.80
2018-08-04T01:33:09.243Z,23.82
2018-08-04T01:35:37.960Z,23.80
2018-08-04T01:38:05.752Z,23.84
2018-08-04T01:40:33.540Z,23.82
2018-08-04T01:43:01.352Z,23.81
2018-08-04T01:45:29.143Z,23.78
2018-08-04T01:47:57.016Z,23.67
2018-08-04T01:50:24.891Z,23.82
2018-08-04T01:52:52.791Z,23.76
2018-08-04T01:55:20.596Z,23.69
2018-08-04T01:57:48.350Z,23.75
2018-08-04T02:00:16.195Z,23.68
2018-08-04T02:02:44.008Z,23.66
2018-08-04T02:05:11.748Z,23.56
2018-08-04T02:07:39.523Z,23.64
2018-08-04T02:10:07.335Z,23.56
2018-08-04T02:12:35.200Z,23.66
2018-08-04T02:15:03.039Z,23.55
2018-08-04T02:17:30.805Z,23.51
2018-08-04T02:19:58.536Z,23.54
2018-08-04T02:22:26.399Z,23.45
2018-08-04T02:24:54.160Z,23.43
2018-08-04T02:27:22.072Z,23.43
2018-08-04T02:29:50.181Z,23.49
2018-08-04T02:32:17.943Z,23.36
2018-08-04T02:34:45.689Z,23.34
2018-08-04T02:37:13.555Z,23.40
2018-08-04T02:39:41.429Z,23.34
2018-08-04T02:42:09.279Z,23.32
2018-08-04T02:44:37.123Z,23.28
2018-08-04T02:47:04.963Z,23.24
2018-08-04T02:49:32.764Z,23.20
2018-08-04T02:52:00.578Z,23.22
2018-08-04T02:54:28.360Z,23.27
2018-08-04T02:56:56.139Z,23.26
2018-08-04T02:59:23.984Z,23.27
2018-08-04T03:01:51.804Z,23.26
2018-08-04T03:04:19.656Z,23.24
2018-08-04T03:06:47.499Z,23.14
2018-08-04T03:09:15.326Z,23.10
2018-08-04T03:11:43.168Z,23.05
2018-08-04T03:14:11.041Z,22.98
2018-08-04T03:16:38.847Z,22.96
2018-08-04T03:19:06.802Z,22.87
2018-08-04T03:21:34.648Z,22.83
2018-08-04T03:24:02.469Z,22.81
2018-08-04T03:26:30.219Z,22.75
2018-08-04T03:28:58.100Z,22.90
2018-08-04T03:31:25.892Z,22.87
2018-08-04T03:33:53.659Z,22.89
2018-08-04T03:36:21.432Z,22.88
2018-08-04T03:38:49.215Z,22.83
2018-08-04T03:41:17.110Z,22.76
2018-08-04T03:43:44.937Z,22.71
2018-08-04T03:46:12.836Z,22.61
2018-08-04T03:48:40.584Z,22.55
2018-08-04T03:51:08.396Z,22.61
2018-08-04T03:53:36.256Z,22.61
2018-08-04T03:56:04.126Z,22.73
2018-08-04T03:58:31.935Z,22.77
2018-08-04T04:00:59.877Z,22.82
2018-08-04T04:03:27.739Z,22.66
2018-08-04T04:05:55.493Z,22.56
2018-08-04T04:08:23.316Z,22.48
2018-08-04T04:10:51.155Z,22.54
2018-08-04T04:13:18.986Z,22.43
2018-08-04T04:15:46.776Z,22.49
2018-08-04T04:18:14.635Z,22.65
2018-08-04T04:20:42.419Z,22.52
2018-08-04T04:23:10.184Z,22.54
2018-08-04T04:25:37.971Z,22.54
2018-08-04T04:28:05.799Z,22.57
2018-08-04T04:30:33.627Z,22.55
2018-08-04T04:33:01.389Z,22.59
2018-08-04T04:35:29.212Z,22.71
2018-08-04T04:37:57.012Z,22.68
2018-08-04T04:40:24.841Z,22.77
2018-08-04T04:42:52.639Z,22.78
2018-08-04T04:45:20.486Z,22.78
2018-08-04T04:47:48.310Z,22.87
2018-08-04T04:50:16.229Z,22.96
2018-08-04T04:52:44.107Z,22.95
2018-08-04T04:55:11.965Z,22.99
2018-08-04T04:57:39.758Z,23.06
2018-08-04T05:00:07.639Z,23.14
2018-08-04T05:02:35.360Z,23.21
2018-08-04T05:05:03.577Z,23.28
2018-08-04T05:07:31.404Z,23.37
2018-08-04T05:09:59.170Z,23.40
2018-08-04T05:12:27.092Z,23.50
2018-08-04T05:14:54.895Z,23.53
2018-08-04T05:17:22.675Z,23.62
2018-08-04T05:19:50.455Z,23.68
2018-08-04T05:22:18.230Z,23.71
2018-08-04T05:24:46.025Z,23.81
2018-08-04T05:27:13.929Z,23.92
2018-08-04T05:29:41.754Z,24.21
2018-08-04T05:32:09.574Z,24.41
2018-08-04T05:34:37.435Z,24.58
2018-08-04T05:37:05.759Z,24.94
2018-08-04T05:39:33.587Z,25.14
2018-08-04T05:42:01.312Z,25.29
2018-08-04T05:44:29.630Z,25.47
2018-08-04T05:46:57.496Z,25.57
2018-08-04T05:49:25.377Z,25.83
2018-08-04T05:51:53.211Z,26.02
2018-08-04T05:54:21.064Z,26.46
2018-08-04T05:56:48.812Z,26.69
2018-08-04T05:59:16.632Z,27.06
2018-08-04T06:01:44.485Z,27.39
2018-08-04T06:04:12.283Z,27.51
2018-08-04T06:06:40.073Z,27.68
2018-08-04T06:09:09.201Z,28.12
2018-08-04T06:11:37.078Z,28.14
2018-08-04T06:14:05.048Z,28.23
2018-08-04T06:16:32.976Z,28.17
2018-08-04T06:19:01.476Z,28.31
2018-08-04T06:21:29.467Z,28.39
2018-08-04T06:23:57.351Z,28.43
2018-08-04T06:26:25.147Z,28.57
2018-08-04T06:28:53.055Z,28.56
2018-08-04T06:31:20.896Z,28.60
2018-08-04T06:33:48.751Z,28.64
2018-08-04T06:36:16.485Z,28.68
2018-08-04T06:38:44.319Z,28.64
2018-08-04T06:41:12.111Z,28.65
2018-08-04T06:43:39.993Z,28.62
2018-08-04T06:46:07.851Z,28.71
2018-08-04T06:48:35.911Z,28.53
2018-08-04T06:51:03.755Z,28.50
2018-08-04T06:53:31.623Z,28.50
2018-08-04T06:55:59.533Z,28.68
2018-08-04T06:58:27.427Z,28.80
2018-08-04T07:00:55.241Z,28.92
2018-08-04T07:03:23.052Z,28.88
2018-08-04T07:05:50.818Z,28.87
2018-08-04T07:08:18.647Z,28.93
2018-08-04T07:10:46.407Z,29.03
2018-08-04T07:13:14.259Z,29.01
2018-08-04T07:15:42.106Z,29.05
2018-08-04T07:18:10.065Z,28.99
2018-08-04T07:20:37.947Z,29.19
2018-08-04T07:23:05.731Z,29.29
2018-08-04T07:25:33.553Z,29.49
2018-08-04T07:28:01.337Z,29.60
2018-08-04T07:30:29.183Z,29.60
2018-08-04T07:33:02.263Z,29.64
2018-08-04T07:35:30.983Z,29.71
2018-08-04T07:37:58.751Z,29.74
2018-08-04T07:40:26.631Z,29.69
2018-08-04T07:42:54.449Z,29.69
2018-08-04T07:45:22.249Z,29.90
2018-08-04T07:47:50.169Z,29.95
2018-08-04T07:50:18.518Z,29.93
2018-08-04T07:52:46.300Z,30.03
2018-08-04T07:55:14.065Z,30.10
2018-08-04T07:57:41.867Z,30.16
2018-08-04T08:00:09.919Z,30.26
2018-08-04T08:02:37.777Z,30.28
2018-08-04T08:05:05.962Z,30.32
2018-08-04T08:07:33.833Z,30.46
2018-08-04T08:10:01.681Z,30.57
2018-08-04T08:12:30.085Z,30.70
2018-08-04T08:14:58.359Z,30.77
2018-08-04T08:17:26.140Z,30.86
2018-08-04T08:19:54.077Z,31.01
2018-08-04T08:22:35.720Z,31.12
2018-08-04T08:25:04.051Z,31.27
2018-08-04T08:27:32.040Z,31.30
2018-08-04T08:29:59.919Z,31.33
2018-08-04T08:32:27.742Z,31.43
2018-08-04T08:34:55.587Z,31.54
2018-08-04T08:37:23.346Z,31.62
2018-08-04T08:39:51.190Z,31.94
2018-08-04T08:42:18.945Z,32.02
2018-08-04T08:44:46.782Z,32.53
2018-08-04T08:47:14.838Z,32.77
2018-08-04T08:49:42.590Z,33.24
2018-08-04T08:52:10.435Z,33.57
2018-08-04T08:54:38.345Z,33.75
2018-08-04T08:57:06.140Z,34.01
2018-08-04T08:59:34.049Z,34.25
2018-08-04T09:02:01.857Z,34.37
2018-08-04T09:04:29.693Z,34.53
2018-08-04T09:06:57.488Z,34.58
2018-08-04T09:09:25.255Z,34.69
2018-08-04T09:11:53.080Z,34.71
2018-08-04T09:14:20.885Z,34.85
2018-08-04T09:16:48.784Z,34.84
2018-08-04T09:19:16.636Z,34.79
2018-08-04T09:21:44.491Z,34.86
2018-08-04T09:24:12.340Z,34.93
2018-08-04T09:26:40.383Z,35.12
2018-08-04T09:29:08.158Z,35.27
2018-08-04T09:31:36.328Z,35.43
2018-08-04T09:34:04.176Z,35.51
2018-08-04T09:36:31.992Z,35.64
2018-08-04T09:39:00.469Z,35.58
2018-08-04T09:41:28.244Z,35.67
2018-08-04T09:43:56.047Z,35.77
2018-08-04T09:46:23.940Z,35.70
2018-08-04T09:48:51.846Z,35.81
2018-08-04T09:51:19.647Z,35.96
2018-08-04T09:53:47.492Z,36.10
2018-08-04T09:56:15.323Z,36.19
2018-08-04T09:58:43.080Z,36.34
2018-08-04T10:01:16.967Z,36.61
2018-08-04T10:03:44.933Z,37.01
2018-08-04T10:06:12.808Z,37.27
2018-08-04T10:08:40.623Z,37.65
2018-08-04T10:11:08.553Z,37.82
2018-08-04T10:13:36.428Z,38.07
2018-08-04T10:16:04.995Z,38.29
2018-08-04T10:18:32.855Z,38.40
2018-08-04T10:21:00.651Z,38.61
2018-08-04T10:23:28.468Z,38.67
2018-08-04T10:25:56.281Z,38.80
2018-08-04T10:28:23.991Z,38.96
2018-08-04T10:30:51.759Z,39.05
2018-08-04T10:33:19.536Z,39.12
2018-08-04T10:35:47.409Z,39.21
2018-08-04T10:38:15.200Z,39.51
2018-08-04T10:40:43.011Z,39.84
2018-08-04T10:43:10.801Z,39.99
2018-08-04T10:45:38.623Z,40.20
2018-08-04T10:48:06.423Z,40.49
2018-08-04T10:50:34.248Z,40.86
2018-08-04T10:53:02.060Z,41.13
2018-08-04T10:55:29.895Z,41.39
2018-08-04T10:57:57.803Z,41.60
2018-08-04T11:00:25.580Z,41.60
2018-08-04T11:02:53.375Z,41.45
2018-08-04T11:05:21.186Z,41.37
2018-08-04T11:07:48.948Z,41.43
2018-08-04T11:10:16.751Z,41.51
2018-08-04T11:12:44.563Z,41.50
2018-08-04T11:15:12.356Z,41.23
2018-08-04T11:17:40.229Z,40.91
2018-08-04T11:20:08.083Z,41.00
2018-08-04T11:22:35.914Z,41.09
2018-08-04T11:25:04.035Z,41.40
2018-08-04T11:27:31.888Z,41.84
2018-08-04T11:29:59.702Z,42.29
2018-08-04T11:32:27.558Z,42.76
2018-08-04T11:34:55.379Z,43.07
2018-08-04T11:37:23.190Z,43.25
2018-08-04T11:39:51.043Z,43.44
2018-08-04T11:42:18.820Z,43.53
2018-08-04T11:44:46.603Z,43.80
2018-08-04T11:47:14.439Z,43.76
2018-08-04T11:49:42.259Z,43.91
2018-08-04T11:52:10.128Z,43.69
2018-08-04T11:54:37.859Z,43.32
2018-08-04T11:57:05.759Z,43.08
2018-08-04T11:59:33.638Z,42.80
2018-08-04T12:02:01.558Z,42.43
2018-08-04T12:04:29.336Z,42.13
2018-08-04T12:06:57.179Z,41.78
2018-08-04T12:09:24.963Z,41.75
2018-08-04T12:11:52.725Z,41.61
2018-08-04T12:14:20.541Z,41.67
2018-08-04T12:16:48.419Z,41.38
2018-08-04T12:19:16.198Z,41.19
2018-08-04T12:21:43.987Z,41.03
2018-08-04T12:24:11.839Z,40.82
2018-08-04T12:26:39.615Z,40.81
2018-08-04T12:29:07.396Z,40.65
2018-08-04T12:31:35.221Z,40.47
2018-08-04T12:34:02.931Z,40.44
2018-08-04T12:36:30.771Z,40.46
2018-08-04T12:38:58.603Z,40.21
2018-08-04T12:41:26.507Z,39.99
2018-08-04T12:43:54.319Z,40.03
2018-08-04T12:46:22.171Z,39.95
2018-08-04T12:48:49.950Z,39.85
2018-08-04T12:51:17.719Z,39.63
2018-08-04T12:53:45.531Z,39.93
2018-08-04T12:56:13.347Z,40.37
2018-08-04T12:58:41.195Z,40.68
2018-08-04T13:01:09.047Z,40.97
2018-08-04T13:03:36.914Z,41.12
2018-08-04T13:06:04.915Z,41.47
2018-08-04T13:08:32.715Z,41.72
2018-08-04T13:11:00.451Z,41.81
2018-08-04T13:13:28.236Z,41.98
2018-08-04T13:15:56.131Z,41.93
2018-08-04T13:18:23.974Z,42.02
2018-08-04T13:20:52.027Z,42.23
2018-08-04T13:23:19.770Z,41.98
2018-08-04T13:25:47.614Z,41.86
2018-08-04T13:28:15.411Z,41.93
2018-08-04T13:30:43.267Z,41.87
2018-08-04T13:33:11.034Z,41.50
2018-08-04T13:35:38.807Z,41.49
2018-08-04T13:38:06.665Z,41.34
2018-08-04T13:40:34.519Z,40.93
2018-08-04T13:43:02.407Z,39.89
2018-08-04T13:45:30.231Z,38.71
2018-08-04T13:47:58.057Z,37.90
2018-08-04T13:50:25.900Z,36.64
2018-08-04T13:52:53.739Z,36.12
2018-08-04T13:55:22.121Z,35.30
2018-08-04T13:57:49.967Z,34.75
2018-08-04T14:00:17.690Z,33.37
2018-08-04T14:02:45.544Z,32.86
2018-08-04T14:05:13.392Z,32.33
2018-08-04T14:07:41.156Z,32.14
2018-08-04T14:10:12.605Z,32.15
2018-08-04T14:12:49.033Z,32.40
2018-08-04T14:15:24.487Z,32.20
2018-08-04T14:17:52.385Z,32.37
2018-08-04T14:20:26.369Z,32.16
2018-08-04T14:22:54.236Z,31.86
2018-08-04T14:25:22.088Z,31.65
2018-08-04T14:27:51.746Z,31.55
2018-08-04T14:30:20.256Z,31.31
2018-08-04T14:32:53.026Z,31.21
2018-08-04T14:35:28.580Z,30.96
2018-08-04T14:37:56.848Z,31.01
2018-08-04T14:40:24.599Z,30.90
2018-08-04T14:42:52.396Z,30.97
2018-08-04T14:45:20.476Z,31.03
2018-08-04T14:47:48.778Z,31.15
2018-08-04T14:50:16.683Z,31.21
2018-08-04T14:52:44.462Z,31.23
2018-08-04T14:55:12.387Z,31.42
2018-08-04T14:57:40.154Z,31.76
2018-08-04T15:00:08.099Z,31.89
2018-08-04T15:02:35.862Z,32.12
2018-08-04T15:05:05.487Z,32.33
2018-08-04T15:07:33.268Z,32.56
2018-08-04T15:10:01.070Z,32.83
2018-08-04T15:12:28.936Z,32.97
2018-08-04T15:14:56.687Z,33.16
2018-08-04T15:17:25.271Z,33.35
2018-08-04T15:19:53.079Z,33.46
2018-08-04T15:22:20.996Z,33.66
2018-08-04T15:24:48.948Z,33.82
2018-08-04T15:27:19.951Z,33.96
2018-08-04T15:29:47.747Z,34.07
2018-08-04T15:32:15.756Z,34.07
2018-08-04T15:34:43.591Z,34.06
2018-08-04T15:37:11.315Z,33.93
2018-08-04T15:39:39.166Z,33.93
2018-08-04T15:42:07.100Z,34.01
2018-08-04T15:44:35.187Z,34.07
2018-08-04T15:47:03.474Z,34.10
2018-08-04T15:49:31.328Z,34.12
2018-08-04T15:51:59.291Z,34.16
2018-08-04T15:54:27.104Z,34.26
2018-08-04T15:56:54.915Z,34.34
2018-08-04T15:59:23.152Z,34.44
2018-08-04T16:01:51.011Z,34.57
2018-08-04T16:04:18.840Z,34.59
2018-08-04T16:06:46.599Z,34.65
2018-08-04T16:09:14.380Z,34.77
2018-08-04T16:11:42.216Z,34.63
2018-08-04T16:14:10.347Z,34.81
2018-08-04T16:16:39.020Z,34.71
2018-08-04T16:19:07.287Z,34.84
2018-08-04T16:21:35.135Z,34.78
2018-08-04T16:24:03.000Z,34.81
2018-08-04T16:26:30.835Z,34.91
2018-08-04T16:29:01.324Z,34.89
2018-08-04T16:31:29.141Z,34.85
2018-08-04T16:33:57.235Z,34.92
2018-08-04T16:36:28.617Z,34.96
2018-08-04T16:38:56.417Z,34.99
2018-08-04T16:41:24.277Z,35.00
2018-08-04T16:43:52.052Z,35.01
2018-08-04T16:46:19.911Z,35.01
2018-08-04T16:48:47.715Z,35.07
2018-08-04T16:51:15.486Z,35.05
2018-08-04T16:53:43.245Z,35.03
2018-08-04T16:56:11.103Z,35.01
2018-08-04T16:58:39.015Z,34.90
2018-08-04T17:01:06.898Z,34.78
2018-08-04T17:03:34.667Z,34.69
2018-08-04T17:06:02.531Z,34.62
2018-08-04T17:08:30.292Z,34.56
2018-08-04T17:10:58.115Z,34.47
2018-08-04T17:13:25.923Z,34.35
2018-08-04T17:15:53.780Z,34.28
2018-08-04T17:18:21.593Z,34.21
2018-08-04T17:20:49.399Z,34.07
2018-08-04T17:23:17.175Z,33.94
2018-08-04T17:25:45.006Z,33.92
2018-08-04T17:28:12.762Z,33.90
2018-08-04T17:30:40.664Z,33.84
2018-08-04T17:33:08.511Z,33.75
2018-08-04T17:35:36.300Z,33.77
2018-08-04T17:38:05.148Z,33.78
2018-08-04T17:40:32.943Z,33.73
2018-08-04T17:43:00.966Z,33.69
2018-08-04T17:45:28.775Z,33.67
2018-08-04T17:47:56.543Z,33.59
2018-08-04T17:50:24.389Z,33.57
2018-08-04T17:52:52.175Z,33.52
2018-08-04T17:55:19.940Z,33.46
2018-08-04T17:57:47.783Z,33.42
2018-08-04T18:00:15.655Z,33.35
2018-08-04T18:02:43.493Z,33.29
2018-08-04T18:05:11.303Z,33.15
2018-08-04T18:07:39.274Z,33.05
2018-08-04T18:10:07.223Z,32.99
2018-08-04T18:12:34.977Z,32.97
2018-08-04T18:15:03.610Z,32.86
2018-08-04T18:17:31.399Z,32.82
2018-08-04T18:19:59.223Z,32.78
2018-08-04T18:22:27.160Z,32.75
2018-08-04T18:24:54.980Z,32.62
2018-08-04T18:27:22.768Z,32.50
2018-08-04T18:29:50.744Z,32.45
2018-08-04T18:32:18.423Z,32.41
2018-08-04T18:34:46.211Z,32.31
2018-08-04T18:37:14.037Z,32.32
2018-08-04T18:39:41.879Z,32.23
2018-08-04T18:42:09.730Z,32.15
2018-08-04T18:44:37.666Z,32.12
2018-08-04T18:47:05.416Z,32.03
2018-08-04T18:49:33.244Z,31.88
2018-08-04T18:52:01.161Z,31.91
2018-08-04T18:54:29.317Z,31.76
2018-08-04T18:56:57.164Z,31.73
2018-08-04T18:59:24.947Z,31.62
2018-08-04T19:01:52.800Z,31.56
2018-08-04T19:04:21.511Z,31.47
2018-08-04T19:06:49.311Z,31.39
2018-08-04T19:09:17.160Z,31.26
2018-08-04T19:11:44.935Z,31.22
2018-08-04T19:14:12.758Z,31.17
2018-08-04T19:16:40.645Z,31.07
2018-08-04T19:19:08.399Z,31.05
2018-08-04T19:21:36.198Z,30.92
2018-08-04T19:24:04.040Z,30.81
2018-08-04T19:26:34.117Z,30.71
2018-08-04T19:29:01.933Z,30.68
2018-08-04T19:31:29.878Z,30.58
2018-08-04T19:33:57.788Z,30.57
2018-08-04T19:36:25.740Z,30.48
2018-08-04T19:38:55.118Z,30.37
2018-08-04T19:41:24.232Z,30.38
2018-08-04T19:43:52.625Z,30.20
2018-08-04T19:46:20.501Z,30.18
2018-08-04T19:48:49.367Z,30.13
2018-08-04T19:51:17.256Z,30.06
2018-08-04T19:53:46.771Z,29.83
2018-08-04T19:56:14.587Z,29.76
2018-08-04T19:58:43.199Z,29.73
2018-08-04T20:01:12.366Z,29.61
2018-08-04T20:03:40.280Z,29.63
2018-08-04T20:06:09.033Z,29.53
2018-08-04T20:08:37.565Z,29.37
2018-08-04T20:11:05.363Z,29.36
2018-08-04T20:13:33.173Z,29.19
2018-08-04T20:16:00.990Z,29.16
2018-08-04T20:18:29.004Z,29.09
2018-08-04T20:20:56.923Z,29.08
2018-08-04T20:23:24.811Z,29.01
2018-08-04T20:25:52.892Z,28.97
2018-08-04T20:28:20.935Z,28.89
2018-08-04T20:30:48.923Z,28.85
2018-08-04T20:33:17.046Z,28.81
2018-08-04T20:35:45.300Z,28.86
2018-08-04T20:38:13.123Z,28.68
2018-08-04T20:40:40.920Z,28.59
2018-08-04T20:43:08.716Z,28.53
2018-08-04T20:45:36.498Z,28.54
2018-08-04T20:48:05.770Z,28.56
2018-08-04T20:50:33.583Z,28.33
2018-08-04T20:53:01.629Z,28.36
2018-08-04T20:55:29.603Z,28.30
2018-08-04T20:57:57.442Z,28.24
2018-08-04T21:00:25.267Z,28.19
2018-08-04T21:02:53.111Z,28.10
2018-08-04T21:05:21.163Z,28.10
2018-08-04T21:07:49.156Z,28.02
2018-08-04T21:10:17.008Z,27.94
2018-08-04T21:12:44.854Z,27.88
2018-08-04T21:15:12.687Z,27.83
2018-08-04T21:17:40.468Z,27.77
2018-08-04T21:20:08.295Z,27.63
2018-08-04T21:22:37.274Z,27.53
2018-08-04T21:25:05.164Z,27.51
2018-08-04T21:27:32.972Z,27.51
2018-08-04T21:30:00.915Z,27.27
2018-08-04T21:32:28.714Z,27.17
2018-08-04T21:34:56.692Z,27.16
2018-08-04T21:37:24.500Z,27.07
2018-08-04T21:39:52.343Z,27.13
2018-08-04T21:42:20.141Z,26.92
2018-08-04T21:44:47.984Z,26.85
2018-08-04T21:47:17.117Z,26.84
2018-08-04T21:49:44.940Z,26.70
2018-08-04T21:52:12.795Z,26.78
2018-08-04T21:54:40.635Z,26.62
2018-08-04T21:57:08.453Z,26.52
2018-08-04T21:59:36.311Z,26.50
2018-08-04T22:02:04.210Z,26.35
2018-08-04T22:04:32.054Z,26.21
2018-08-04T22:08:15.111Z,26.18
2018-08-04T22:10:42.952Z,26.11
2018-08-04T22:13:10.812Z,26.09
2018-08-04T22:15:38.696Z,26.13
2018-08-04T22:18:06.588Z,25.99
2018-08-04T22:20:34.347Z,25.93
2018-08-04T22:23:02.146Z,25.94
2018-08-04T22:25:30.339Z,25.96
2018-08-04T22:27:58.590Z,25.94
2018-08-04T22:30:26.607Z,25.95
2018-08-04T22:32:54.416Z,25.94
2018-08-04T22:35:22.748Z,25.85
2018-08-04T22:37:51.152Z,25.69
2018-08-04T22:40:19.902Z,25.62
2018-08-04T22:42:47.794Z,25.40
2018-08-04T22:46:06.563Z,25.34
2018-08-04T22:48:34.583Z,25.27
2018-08-04T22:51:02.541Z,25.43
2018-08-04T22:53:30.636Z,25.29
2018-08-04T22:55:58.439Z,25.29
2018-08-04T22:58:26.238Z,25.10
2018-08-04T23:00:54.055Z,25.12
2018-08-04T23:03:21.835Z,25.09
2018-08-04T23:05:49.589Z,24.95
2018-08-04T23:08:17.388Z,24.95
2018-08-04T23:10:45.244Z,25.03
2018-08-04T23:13:13.621Z,24.91
2018-08-04T23:15:41.500Z,24.99
2018-08-04T23:18:09.680Z,24.90
2018-08-04T23:20:37.634Z,24.85
2018-08-04T23:23:06.263Z,24.82
2018-08-04T23:25:34.120Z,24.72
2018-08-04T23:28:01.888Z,24.64
2018-08-04T23:30:29.673Z,24.69
2018-08-04T23:32:57.480Z,24.57
2018-08-04T23:35:26.083Z,24.55
2018-08-04T23:37:54.012Z,24.43
2018-08-04T23:40:22.266Z,24.41
2018-08-04T23:42:50.027Z,24.45
2018-08-04T23:45:17.900Z,24.35
2018-08-04T23:47:45.709Z,24.38
2018-08-04T23:50:13.622Z,24.36
2018-08-04T23:52:41.552Z,24.35
2018-08-04T23:55:09.336Z,24.26
2018-08-04T23:57:37.191Z,24.24
